createdAt,value
2017-08-27T00:00:15.348Z,19.7
2017-08-27T00:00:55.734Z,19.71
2017-08-27T00:01:36.198Z,19.71
2017-08-27T00:02:16.519Z,19.76
2017-08-27T00:02:56.954Z,19.8
2017-08-27T00:03:37.308Z,19.78
2017-08-27T00:04:17.753Z,19.75
2017-08-27T00:04:58.144Z,19.83
2017-08-27T00:05:38.609Z,19.79
2017-08-27T00:06:18.951Z,19.79
2017-08-27T00:06:59.341Z,19.83
2017-08-27T00:07:39.758Z,19.76
2017-08-27T00:08:20.122Z,19.75
2017-08-27T00:09:00.599Z,19.79
2017-08-27T00:09:40.990Z,19.79
2017-08-27T00:10:21.328Z,19.82
2017-08-27T00:11:01.801Z,19.82
2017-08-27T00:11:42.156Z,19.8
2017-08-27T00:12:22.625Z,19.75
2017-08-27T00:13:03.000Z,19.79
2017-08-27T00:13:43.469Z,19.82
2017-08-27T00:14:23.962Z,19.85
2017-08-27T00:15:04.365Z,19.79
2017-08-27T00:15:44.800Z,19.79
2017-08-27T00:16:25.169Z,19.71
2017-08-27T00:17:05.565Z,19.71
2017-08-27T00:17:45.998Z,19.76
2017-08-27T00:18:26.357Z,19.67
2017-08-27T00:19:06.770Z,19.75
2017-08-27T00:19:47.191Z,19.72
2017-08-27T00:20:27.634Z,19.72
2017-08-27T00:21:08.018Z,19.8
2017-08-27T00:21:48.478Z,19.72
2017-08-27T00:22:28.810Z,19.68
2017-08-27T00:23:09.232Z,19.79
2017-08-27T00:23:49.622Z,19.65
2017-08-27T00:24:30.036Z,19.64
2017-08-27T00:25:10.403Z,19.55
2017-08-27T00:25:50.830Z,19.6
2017-08-27T00:26:31.294Z,19.67
2017-08-27T00:27:11.661Z,19.67
2017-08-27T00:27:52.062Z,19.64
2017-08-27T00:28:32.452Z,19.62
2017-08-27T00:29:12.835Z,19.65
2017-08-27T00:29:53.323Z,19.61
2017-08-27T00:30:33.653Z,19.57
2017-08-27T00:31:14.222Z,19.61
2017-08-27T00:31:54.565Z,19.64
2017-08-27T00:32:35.039Z,19.6
2017-08-27T00:33:15.461Z,19.6
2017-08-27T00:33:55.800Z,19.61
2017-08-27T00:34:36.238Z,19.6
2017-08-27T00:35:16.640Z,19.62
2017-08-27T00:35:57.045Z,19.6
2017-08-27T00:36:37.424Z,19.7
2017-08-27T00:37:17.828Z,19.71
2017-08-27T00:37:58.299Z,19.75
2017-08-27T00:38:38.661Z,19.75
2017-08-27T00:39:19.048Z,19.62
2017-08-27T00:39:59.471Z,19.79
2017-08-27T00:40:39.868Z,19.7
2017-08-27T00:41:20.296Z,19.8
2017-08-27T00:42:00.710Z,19.75
2017-08-27T00:42:41.152Z,19.86
2017-08-27T00:43:21.513Z,19.82
2017-08-27T00:44:01.911Z,19.75
2017-08-27T00:44:42.361Z,19.72
2017-08-27T00:45:22.757Z,19.72
2017-08-27T00:46:03.244Z,19.75
2017-08-27T00:46:43.641Z,19.71
2017-08-27T00:47:24.068Z,19.78
2017-08-27T00:48:04.496Z,19.7
2017-08-27T00:48:44.939Z,19.79
2017-08-27T00:49:25.320Z,19.79
2017-08-27T00:50:05.759Z,19.72
2017-08-27T00:50:46.190Z,19.71
2017-08-27T00:51:26.616Z,19.72
2017-08-27T00:52:07.036Z,19.75
2017-08-27T00:52:47.428Z,19.71
2017-08-27T00:53:27.814Z,19.71
2017-08-27T00:54:08.316Z,19.78
2017-08-27T00:54:48.707Z,19.72
2017-08-27T00:55:29.167Z,19.78
2017-08-27T00:56:09.539Z,19.71
2017-08-27T00:56:50.027Z,19.75
2017-08-27T00:57:30.406Z,19.78
2017-08-27T00:58:10.832Z,19.67
2017-08-27T00:58:51.242Z,19.72
2017-08-27T00:59:31.632Z,19.78
2017-08-27T01:00:12.025Z,19.68
2017-08-27T01:00:52.454Z,19.75
2017-08-27T01:01:32.932Z,19.7
2017-08-27T01:02:13.307Z,19.75
2017-08-27T01:02:53.757Z,19.68
2017-08-27T01:03:34.142Z,19.68
2017-08-27T01:04:14.561Z,19.7
2017-08-27T01:04:54.917Z,19.75
2017-08-27T01:05:35.380Z,19.68
2017-08-27T01:06:15.810Z,19.7
2017-08-27T01:06:56.313Z,19.76
2017-08-27T01:07:36.747Z,19.75
2017-08-27T01:08:17.106Z,19.71
2017-08-27T01:08:57.487Z,19.75
2017-08-27T01:09:37.895Z,19.68
2017-08-27T01:10:18.368Z,19.6
2017-08-27T01:10:58.837Z,19.67
2017-08-27T01:11:39.271Z,19.52
2017-08-27T01:12:19.701Z,19.52
2017-08-27T01:13:00.085Z,19.6
2017-08-27T01:13:40.531Z,19.6
2017-08-27T01:14:20.958Z,19.61
2017-08-27T01:15:01.418Z,19.5
2017-08-27T01:15:41.785Z,19.57
2017-08-27T01:16:22.210Z,19.58
2017-08-27T01:17:02.665Z,19.46
2017-08-27T01:17:43.099Z,19.49
2017-08-27T01:18:23.561Z,19.49
2017-08-27T01:19:04.024Z,19.46
2017-08-27T01:19:44.436Z,19.45
2017-08-27T01:20:24.909Z,19.46
2017-08-27T01:21:05.251Z,19.43
2017-08-27T01:21:45.629Z,19.42
2017-08-27T01:22:26.161Z,19.38
2017-08-27T01:23:06.552Z,19.46
2017-08-27T01:23:46.995Z,19.38
2017-08-27T01:24:27.352Z,19.34
2017-08-27T01:25:07.732Z,19.28
2017-08-27T01:25:48.186Z,19.25
2017-08-27T01:26:28.613Z,19.35
2017-08-27T01:27:09.009Z,19.27
2017-08-27T01:27:49.441Z,19.31
2017-08-27T01:28:29.877Z,19.28
2017-08-27T01:29:10.258Z,19.28
2017-08-27T01:29:50.672Z,19.31
2017-08-27T01:30:31.046Z,19.27
2017-08-27T01:31:11.495Z,19.2
2017-08-27T01:31:51.926Z,19.17
2017-08-27T01:32:32.366Z,19.21
2017-08-27T01:33:12.806Z,19.2
2017-08-27T01:33:53.138Z,19.13
2017-08-27T01:34:33.503Z,19.1
2017-08-27T01:35:13.876Z,19.16
2017-08-27T01:35:54.357Z,19.13
2017-08-27T01:36:34.740Z,19.1
2017-08-27T01:37:15.126Z,19.12
2017-08-27T01:37:55.638Z,19.12
2017-08-27T01:38:36.060Z,19.13
2017-08-27T01:39:16.509Z,19.1
2017-08-27T01:39:56.865Z,19.13
2017-08-27T01:40:37.389Z,19.12
2017-08-27T01:41:17.740Z,19.2
2017-08-27T01:41:58.138Z,19.1
2017-08-27T01:42:38.540Z,19.12
2017-08-27T01:43:18.991Z,19.1
2017-08-27T01:43:59.375Z,19.09
2017-08-27T01:44:39.731Z,19.23
2017-08-27T01:45:20.229Z,19.17
2017-08-27T01:46:00.609Z,19.21
2017-08-27T01:46:41.082Z,19.09
2017-08-27T01:47:21.476Z,19.1
2017-08-27T01:48:01.919Z,19.13
2017-08-27T01:48:42.283Z,19.2
2017-08-27T01:49:22.735Z,19.23
2017-08-27T01:50:03.168Z,19.15
2017-08-27T01:50:43.512Z,19.1
2017-08-27T01:51:23.917Z,19.1
2017-08-27T01:52:04.257Z,19.15
2017-08-27T01:52:44.676Z,19.15
2017-08-27T01:53:25.102Z,19.17
2017-08-27T01:54:05.542Z,19.17
2017-08-27T01:54:46.023Z,19.15
2017-08-27T01:55:26.443Z,19.09
2017-08-27T01:56:06.830Z,19.13
2017-08-27T01:56:47.243Z,19.15
2017-08-27T01:57:27.613Z,19.12
2017-08-27T01:58:08.083Z,19.06
2017-08-27T01:58:48.488Z,19.2
2017-08-27T01:59:28.885Z,19.12
2017-08-27T02:00:09.293Z,19.1
2017-08-27T02:00:49.653Z,19.1
2017-08-27T02:01:30.071Z,19.1
2017-08-27T02:02:10.539Z,19.12
2017-08-27T02:02:50.869Z,19.1
2017-08-27T02:03:31.245Z,19.13
2017-08-27T02:04:11.675Z,19.1
2017-08-27T02:04:52.070Z,19.12
2017-08-27T02:05:32.435Z,19.17
2017-08-27T02:06:12.881Z,19.21
2017-08-27T02:06:53.253Z,19.24
2017-08-27T02:07:33.797Z,19.25
2017-08-27T02:08:14.122Z,19.27
2017-08-27T02:08:54.541Z,19.24
2017-08-27T02:09:34.985Z,19.3
2017-08-27T02:10:15.417Z,19.25
2017-08-27T02:10:55.762Z,19.28
2017-08-27T02:11:36.189Z,19.23
2017-08-27T02:12:16.583Z,19.28
2017-08-27T02:12:56.981Z,19.24
2017-08-27T02:13:37.427Z,19.21
2017-08-27T02:14:17.844Z,19.23
2017-08-27T02:14:58.333Z,19.23
2017-08-27T02:15:38.648Z,19.2
2017-08-27T02:16:19.140Z,19.21
2017-08-27T02:16:59.510Z,19.12
2017-08-27T02:17:39.931Z,19.16
2017-08-27T02:18:20.404Z,19.24
2017-08-27T02:19:00.879Z,19.25
2017-08-27T02:19:41.218Z,19.16
2017-08-27T02:20:21.721Z,19.13
2017-08-27T02:21:02.062Z,19.21
2017-08-27T02:21:42.428Z,19.17
2017-08-27T02:22:22.842Z,19.25
2017-08-27T02:23:03.300Z,19.21
2017-08-27T02:23:43.645Z,19.24
2017-08-27T02:24:24.107Z,19.17
2017-08-27T02:25:04.493Z,19.15
2017-08-27T02:25:44.917Z,19.17
2017-08-27T02:26:25.332Z,19.17
2017-08-27T02:27:05.716Z,19.17
2017-08-27T02:27:46.128Z,19.17
2017-08-27T02:28:26.509Z,19.24
2017-08-27T02:29:06.960Z,19.17
2017-08-27T02:29:47.349Z,19.21
2017-08-27T02:30:27.769Z,19.13
2017-08-27T02:31:08.166Z,19.24
2017-08-27T02:31:48.550Z,19.16
2017-08-27T02:32:28.982Z,19.24
2017-08-27T02:33:09.378Z,19.23
2017-08-27T02:33:49.705Z,19.17
2017-08-27T02:34:30.145Z,19.1
2017-08-27T02:35:10.532Z,19.17
2017-08-27T02:35:51.022Z,19.1
2017-08-27T02:36:31.414Z,19.09
2017-08-27T02:37:11.722Z,19.07
2017-08-27T02:37:52.123Z,19.12
2017-08-27T02:38:32.593Z,19.16
2017-08-27T02:39:13.035Z,19.06
2017-08-27T02:39:53.468Z,19.05
2017-08-27T02:40:33.881Z,19.02
2017-08-27T02:41:14.289Z,19.05
2017-08-27T02:41:54.658Z,18.93
2017-08-27T02:42:35.101Z,18.9
2017-08-27T02:43:15.516Z,18.9
2017-08-27T02:43:55.873Z,18.84
2017-08-27T02:44:36.333Z,18.9
2017-08-27T02:45:16.695Z,18.91
2017-08-27T02:45:57.818Z,18.87
2017-08-27T02:46:37.578Z,18.83
2017-08-27T02:47:17.995Z,18.86
2017-08-27T02:47:58.427Z,18.86
2017-08-27T02:49:52.896Z,18.86
2017-08-27T02:50:46.194Z,18.86
2017-08-27T02:51:26.605Z,18.83
2017-08-27T02:52:06.990Z,18.86
2017-08-27T02:52:47.415Z,18.83
2017-08-27T02:53:27.824Z,18.83
2017-08-27T02:54:08.213Z,18.82
2017-08-27T02:54:48.636Z,18.79
2017-08-27T02:55:29.081Z,18.84
2017-08-27T02:56:09.548Z,18.83
2017-08-27T02:56:49.963Z,18.93
2017-08-27T02:57:30.351Z,18.86
2017-08-27T02:58:10.798Z,18.89
2017-08-27T02:58:51.203Z,18.91
2017-08-27T02:59:31.539Z,18.89
2017-08-27T03:00:11.952Z,18.9
2017-08-27T03:00:52.376Z,18.9
2017-08-27T03:01:32.831Z,18.9
2017-08-27T03:02:13.266Z,18.9
2017-08-27T03:02:53.677Z,18.84
2017-08-27T03:03:34.000Z,18.89
2017-08-27T03:04:14.439Z,18.87
2017-08-27T03:04:54.867Z,18.9
2017-08-27T03:05:35.276Z,18.78
2017-08-27T03:06:15.693Z,18.84
2017-08-27T03:06:56.144Z,18.78
2017-08-27T03:07:36.480Z,18.9
2017-08-27T03:08:16.950Z,18.84
2017-08-27T03:08:57.345Z,18.82
2017-08-27T03:09:37.704Z,18.86
2017-08-27T03:10:18.163Z,18.69
2017-08-27T03:10:58.593Z,18.75
2017-08-27T03:11:38.965Z,18.74
2017-08-27T03:12:19.350Z,18.72
2017-08-27T03:12:59.751Z,18.76
2017-08-27T03:13:40.187Z,18.74
2017-08-27T03:14:20.548Z,18.68
2017-08-27T03:15:00.970Z,18.72
2017-08-27T03:15:41.355Z,18.66
2017-08-27T03:16:21.758Z,18.71
2017-08-27T03:17:02.164Z,18.62
2017-08-27T03:17:42.521Z,18.56
2017-08-27T03:18:22.926Z,18.72
2017-08-27T03:19:03.349Z,18.68
2017-08-27T03:19:43.809Z,18.62
2017-08-27T03:20:24.248Z,18.69
2017-08-27T03:21:04.648Z,18.6
2017-08-27T03:21:45.153Z,18.64
2017-08-27T03:22:25.524Z,18.65
2017-08-27T03:23:05.935Z,18.57
2017-08-27T03:23:46.343Z,18.47
2017-08-27T03:24:26.784Z,18.46
2017-08-27T03:25:07.197Z,18.5
2017-08-27T03:25:47.616Z,18.49
2017-08-27T03:26:27.970Z,18.54
2017-08-27T03:27:08.432Z,18.5
2017-08-27T03:27:48.807Z,18.49
2017-08-27T03:28:29.218Z,18.57
2017-08-27T03:29:09.655Z,18.57
2017-08-27T03:29:50.041Z,18.6
2017-08-27T03:30:30.477Z,18.6
2017-08-27T03:31:10.868Z,18.6
2017-08-27T03:31:51.290Z,18.56
2017-08-27T03:32:31.636Z,18.65
2017-08-27T03:33:12.067Z,18.62
2017-08-27T03:33:52.432Z,18.59
2017-08-27T03:34:32.970Z,18.71
2017-08-27T03:35:13.348Z,18.72
2017-08-27T03:35:53.660Z,18.71
2017-08-27T03:36:34.171Z,18.69
2017-08-27T03:37:14.588Z,18.71
2017-08-27T03:37:54.936Z,18.71
2017-08-27T03:38:35.307Z,18.72
2017-08-27T03:39:15.713Z,18.74
2017-08-27T03:39:56.190Z,18.75
2017-08-27T03:40:36.549Z,18.71
2017-08-27T03:41:16.998Z,18.71
2017-08-27T03:41:57.386Z,18.59
2017-08-27T03:42:37.755Z,18.65
2017-08-27T03:43:18.182Z,18.64
2017-08-27T03:43:58.604Z,18.68
2017-08-27T03:44:39.024Z,18.62
2017-08-27T03:45:19.435Z,18.57
2017-08-27T03:45:59.790Z,18.49
2017-08-27T03:46:40.159Z,18.51
2017-08-27T03:47:20.584Z,18.6
2017-08-27T03:48:01.008Z,18.49
2017-08-27T03:48:41.353Z,18.56
2017-08-27T03:49:21.777Z,18.47
2017-08-27T03:50:02.154Z,18.46
2017-08-27T03:50:42.558Z,18.38
2017-08-27T03:51:22.988Z,18.35
2017-08-27T03:52:03.398Z,18.31
2017-08-27T03:52:43.840Z,18.34
2017-08-27T03:53:24.230Z,18.39
2017-08-27T03:54:04.666Z,18.38
2017-08-27T03:54:45.071Z,18.32
2017-08-27T03:55:25.445Z,18.42
2017-08-27T03:56:05.863Z,18.34
2017-08-27T03:56:46.244Z,18.36
2017-08-27T03:57:26.680Z,18.31
2017-08-27T03:58:07.013Z,18.32
2017-08-27T03:58:47.438Z,18.34
2017-08-27T03:59:27.841Z,18.29
2017-08-27T04:00:08.280Z,18.36
2017-08-27T04:00:48.697Z,18.31
2017-08-27T04:01:29.137Z,18.29
2017-08-27T04:02:09.523Z,18.35
2017-08-27T04:02:49.832Z,18.47
2017-08-27T04:03:30.292Z,18.26
2017-08-27T04:04:10.726Z,18.35
2017-08-27T04:04:51.077Z,18.36
2017-08-27T04:05:31.436Z,18.28
2017-08-27T04:06:11.921Z,18.32
2017-08-27T04:06:52.293Z,18.31
2017-08-27T04:07:32.705Z,18.31
2017-08-27T04:08:13.150Z,18.28
2017-08-27T04:08:53.475Z,18.34
2017-08-27T04:09:33.904Z,18.32
2017-08-27T04:10:14.338Z,18.31
2017-08-27T04:10:54.748Z,18.31
2017-08-27T04:11:35.147Z,18.29
2017-08-27T04:12:15.530Z,18.19
2017-08-27T04:12:55.933Z,18.2
2017-08-27T04:13:36.343Z,18.19
2017-08-27T04:14:16.736Z,18.21
2017-08-27T04:14:57.131Z,18.2
2017-08-27T04:15:37.560Z,18.2
2017-08-27T04:16:18.006Z,18.17
2017-08-27T04:16:58.484Z,18.05
2017-08-27T04:17:38.893Z,18.09
2017-08-27T04:18:19.267Z,18.1
2017-08-27T04:18:59.630Z,18.11
2017-08-27T04:19:40.124Z,18.1
2017-08-27T04:20:20.464Z,18.09
2017-08-27T04:21:00.853Z,18.02
2017-08-27T04:21:41.282Z,18.1
2017-08-27T04:22:21.723Z,18.1
2017-08-27T04:23:02.164Z,17.95
2017-08-27T04:23:42.543Z,18.11
2017-08-27T04:24:23.011Z,18.02
2017-08-27T04:25:03.393Z,18.04
2017-08-27T04:25:43.830Z,18.01
2017-08-27T04:26:24.209Z,18.01
2017-08-27T04:27:04.614Z,18.04
2017-08-27T04:27:44.989Z,18.02
2017-08-27T04:28:25.440Z,17.95
2017-08-27T04:29:05.867Z,17.96
2017-08-27T04:29:46.259Z,18.02
2017-08-27T04:30:26.625Z,17.99
2017-08-27T04:31:07.102Z,18.05
2017-08-27T04:31:47.470Z,18.02
2017-08-27T04:32:27.840Z,18.01
2017-08-27T04:33:08.259Z,17.96
2017-08-27T04:33:48.727Z,18.01
2017-08-27T04:34:29.141Z,18.05
2017-08-27T04:35:09.525Z,18.1
2017-08-27T04:35:49.950Z,18.11
2017-08-27T04:36:30.312Z,18.14
2017-08-27T04:37:10.755Z,18.11
2017-08-27T04:37:51.110Z,18.2
2017-08-27T04:38:31.539Z,18.13
2017-08-27T04:39:11.950Z,18.13
2017-08-27T04:39:52.326Z,18.31
2017-08-27T04:40:32.735Z,18.28
2017-08-27T04:41:13.145Z,18.21
2017-08-27T04:41:53.481Z,18.36
2017-08-27T04:42:33.915Z,18.28
2017-08-27T04:43:14.317Z,18.29
2017-08-27T04:43:54.832Z,18.25
2017-08-27T04:44:35.180Z,18.34
2017-08-27T04:45:15.638Z,18.28
2017-08-27T04:45:56.057Z,18.26
2017-08-27T04:46:36.480Z,18.21
2017-08-27T04:47:16.853Z,18.19
2017-08-27T04:47:57.298Z,18.21
2017-08-27T04:48:37.752Z,18.16
2017-08-27T04:49:18.224Z,18.17
2017-08-27T04:49:58.563Z,18.23
2017-08-27T04:50:39.039Z,18.19
2017-08-27T04:51:19.465Z,18.13
2017-08-27T04:51:59.888Z,18.2
2017-08-27T04:52:40.269Z,18.16
2017-08-27T04:53:20.709Z,18.13
2017-08-27T04:54:01.167Z,18.21
2017-08-27T04:54:41.556Z,18.05
2017-08-27T04:55:22.023Z,18.05
2017-08-27T04:56:02.465Z,18.17
2017-08-27T04:56:42.843Z,18.17
2017-08-27T04:57:23.299Z,18.16
2017-08-27T04:58:03.791Z,18.19
2017-08-27T04:58:44.269Z,18.13
2017-08-27T04:59:24.670Z,18.25
2017-08-27T05:00:05.159Z,18.19
2017-08-27T05:00:45.625Z,18.26
2017-08-27T05:01:26.025Z,18.14
2017-08-27T05:02:06.452Z,18.32
2017-08-27T05:02:46.959Z,18.34
2017-08-27T05:03:27.404Z,18.29
2017-08-27T05:04:07.854Z,18.28
2017-08-27T05:04:48.240Z,18.25
2017-08-27T05:05:28.646Z,18.25
2017-08-27T05:06:08.989Z,18.25
2017-08-27T05:06:49.483Z,18.29
2017-08-27T05:07:29.878Z,18.34
2017-08-27T05:08:10.379Z,18.26
2017-08-27T05:08:50.839Z,18.25
2017-08-27T05:09:31.269Z,18.29
2017-08-27T05:10:11.647Z,18.28
2017-08-27T05:10:52.052Z,18.35
2017-08-27T05:11:32.418Z,18.28
2017-08-27T05:12:12.880Z,18.31
2017-08-27T05:12:53.300Z,18.31
2017-08-27T05:13:33.720Z,18.26
2017-08-27T05:14:14.072Z,18.32
2017-08-27T05:14:54.431Z,18.21
2017-08-27T05:15:34.894Z,18.23
2017-08-27T05:16:15.342Z,18.25
2017-08-27T05:16:55.720Z,18.2
2017-08-27T05:17:36.231Z,18.19
2017-08-27T05:18:16.645Z,18.26
2017-08-27T05:19:59.779Z,18.34
2017-08-27T05:20:39.536Z,18.32
2017-08-27T05:21:20.019Z,18.36
2017-08-27T05:22:00.358Z,18.28
2017-08-27T05:22:40.798Z,18.28
2017-08-27T05:23:21.146Z,18.31
2017-08-27T05:24:01.624Z,18.26
2017-08-27T05:24:42.030Z,18.32
2017-08-27T05:25:22.468Z,18.32
2017-08-27T05:26:02.890Z,18.47
2017-08-27T05:26:43.331Z,18.38
2017-08-27T05:27:23.670Z,18.35
2017-08-27T05:28:04.039Z,18.38
2017-08-27T05:28:44.514Z,18.39
2017-08-27T05:30:36.172Z,18.47
2017-08-27T05:32:35.708Z,18.68
2017-08-27T05:33:37.550Z,18.71
2017-08-27T05:34:39.900Z,18.72
2017-08-27T05:35:40.350Z,18.74
2017-08-27T05:36:32.202Z,18.68
2017-08-27T05:37:12.580Z,18.75
2017-08-27T05:37:52.969Z,18.75
2017-08-27T05:38:33.371Z,18.74
2017-08-27T05:39:13.761Z,18.72
2017-08-27T05:39:54.183Z,18.72
2017-08-27T05:40:34.585Z,18.69
2017-08-27T05:41:15.020Z,18.74
2017-08-27T05:41:55.518Z,18.71
2017-08-27T05:42:35.859Z,18.76
2017-08-27T05:43:16.436Z,18.68
2017-08-27T05:43:56.925Z,18.71
2017-08-27T05:44:37.359Z,18.71
2017-08-27T05:45:17.789Z,18.75
2017-08-27T05:45:58.171Z,18.69
2017-08-27T05:46:38.576Z,18.72
2017-08-27T05:50:19.509Z,18.86
2017-08-27T05:51:38.441Z,18.82
2017-08-27T05:52:37.160Z,18.84
2017-08-27T05:53:26.409Z,18.86
2017-08-27T05:54:06.794Z,18.9
2017-08-27T05:54:47.220Z,18.94
2017-08-27T05:55:27.603Z,18.91
2017-08-27T05:56:08.017Z,19.05
2017-08-27T05:56:48.395Z,19.02
2017-08-27T05:57:28.811Z,18.99
2017-08-27T05:58:09.165Z,19.09
2017-08-27T05:58:49.597Z,19.05
2017-08-27T05:59:29.968Z,19.06
2017-08-27T06:00:10.385Z,19.23
2017-08-27T06:00:50.758Z,19.23
2017-08-27T06:01:31.189Z,19.24
2017-08-27T06:02:11.571Z,19.25
2017-08-27T06:02:52.012Z,19.31
2017-08-27T06:03:32.398Z,19.35
2017-08-27T06:04:12.794Z,19.38
2017-08-27T06:04:53.240Z,19.46
2017-08-27T06:05:33.612Z,19.55
2017-08-27T06:06:13.945Z,19.52
2017-08-27T06:06:54.402Z,19.58
2017-08-27T06:07:34.803Z,19.53
2017-08-27T06:08:15.242Z,19.58
2017-08-27T06:08:55.581Z,19.72
2017-08-27T06:09:36.078Z,19.72
2017-08-27T06:10:16.416Z,19.79
2017-08-27T06:10:56.859Z,19.76
2017-08-27T06:11:37.242Z,19.79
2017-08-27T06:12:17.668Z,19.76
2017-08-27T06:12:58.033Z,19.86
2017-08-27T06:13:38.520Z,19.98
2017-08-27T06:14:18.992Z,20.02
2017-08-27T06:14:59.559Z,20.05
2017-08-27T06:15:40.074Z,20.1
2017-08-27T06:16:20.425Z,20.26
2017-08-27T06:17:00.913Z,20.27
2017-08-27T06:17:41.385Z,20.34
2017-08-27T06:18:21.738Z,20.44
2017-08-27T06:19:02.116Z,20.48
2017-08-27T06:19:42.587Z,20.51
2017-08-27T06:20:22.938Z,20.71
2017-08-27T06:21:03.423Z,20.72
2017-08-27T06:21:43.843Z,20.81
2017-08-27T06:22:24.339Z,20.88
2017-08-27T06:23:04.740Z,21.06
2017-08-27T06:23:45.175Z,21.15
2017-08-27T06:24:25.616Z,21.34
2017-08-27T06:25:06.005Z,21.42
2017-08-27T06:26:57.897Z,21.75
2017-08-27T06:27:38.473Z,21.89
2017-08-27T06:28:18.907Z,21.98
2017-08-27T06:28:59.336Z,22.04
2017-08-27T06:29:39.795Z,22.23
2017-08-27T06:30:20.258Z,22.24
2017-08-27T06:31:00.619Z,22.36
2017-08-27T06:31:40.988Z,22.46
2017-08-27T06:32:21.416Z,22.51
2017-08-27T06:33:01.877Z,22.66
2017-08-27T06:33:42.345Z,22.72
2017-08-27T06:34:22.730Z,22.99
2017-08-27T06:35:03.259Z,23.07
2017-08-27T06:35:43.637Z,23.09
2017-08-27T06:36:24.000Z,23.25
2017-08-27T06:37:04.513Z,23.31
2017-08-27T06:37:44.864Z,23.37
2017-08-27T06:38:25.323Z,23.42
2017-08-27T06:39:05.768Z,23.52
2017-08-27T06:39:46.183Z,23.56
2017-08-27T06:40:26.621Z,23.59
2017-08-27T06:41:07.100Z,23.64
2017-08-27T06:41:47.516Z,23.67
2017-08-27T06:42:27.922Z,23.77
2017-08-27T06:43:08.358Z,23.82
2017-08-27T06:43:48.787Z,23.9
2017-08-27T06:44:29.198Z,23.93
2017-08-27T06:45:09.601Z,23.9
2017-08-27T06:45:49.964Z,23.86
2017-08-27T06:46:30.442Z,23.79
2017-08-27T06:47:10.850Z,23.82
2017-08-27T06:47:51.252Z,23.79
2017-08-27T06:48:31.619Z,23.72
2017-08-27T06:49:12.100Z,23.72
2017-08-27T06:49:52.462Z,23.68
2017-08-27T06:50:32.895Z,23.64
2017-08-27T06:51:13.343Z,23.57
2017-08-27T06:51:53.699Z,23.47
2017-08-27T06:52:34.199Z,23.44
2017-08-27T06:53:14.615Z,23.59
2017-08-27T06:53:54.996Z,23.56
2017-08-27T06:54:35.430Z,23.45
2017-08-27T06:55:15.822Z,23.44
2017-08-27T06:55:56.261Z,23.42
2017-08-27T06:56:36.619Z,23.39
2017-08-27T06:57:17.070Z,23.44
2017-08-27T06:57:57.509Z,23.32
2017-08-27T06:58:37.908Z,23.37
2017-08-27T06:59:18.261Z,23.32
2017-08-27T06:59:58.682Z,23.25
2017-08-27T07:00:39.102Z,23.26
2017-08-27T07:01:19.505Z,23.32
2017-08-27T07:01:59.995Z,23.21
2017-08-27T07:02:40.344Z,23.25
2017-08-27T07:03:20.778Z,23.21
2017-08-27T07:04:01.139Z,23.29
2017-08-27T07:04:41.561Z,23.34
2017-08-27T07:05:22.739Z,23.32
2017-08-27T07:06:02.389Z,23.37
2017-08-27T07:06:42.828Z,23.37
2017-08-27T07:07:23.209Z,23.42
2017-08-27T07:08:03.660Z,23.37
2017-08-27T07:08:44.150Z,23.56
2017-08-27T07:09:24.559Z,23.56
2017-08-27T07:10:04.949Z,23.71
2017-08-27T07:10:45.324Z,23.77
2017-08-27T07:11:25.725Z,23.68
2017-08-27T07:12:06.259Z,23.74
2017-08-27T07:12:46.568Z,23.84
2017-08-27T07:13:26.961Z,23.81
2017-08-27T07:14:07.467Z,23.81
2017-08-27T07:14:47.844Z,23.9
2017-08-27T07:15:28.294Z,23.86
2017-08-27T07:16:08.678Z,23.97
2017-08-27T07:16:49.104Z,23.93
2017-08-27T07:17:29.547Z,23.97
2017-08-27T07:18:09.998Z,24.04
2017-08-27T07:18:50.486Z,24.05
2017-08-27T07:19:30.851Z,24.06
2017-08-27T07:20:11.260Z,24.18
2017-08-27T07:20:51.746Z,24.15
2017-08-27T07:21:32.271Z,24.24
2017-08-27T07:22:12.727Z,24.23
2017-08-27T07:22:53.130Z,24.27
2017-08-27T07:23:33.515Z,24.41
2017-08-27T07:24:13.924Z,24.44
2017-08-27T07:24:54.308Z,24.46
2017-08-27T07:25:34.846Z,24.56
2017-08-27T07:26:15.214Z,24.67
2017-08-27T07:26:55.635Z,24.84
2017-08-27T07:27:36.106Z,24.89
2017-08-27T07:28:16.566Z,24.92
2017-08-27T07:28:56.954Z,25.05
2017-08-27T07:29:37.432Z,25.05
2017-08-27T07:30:17.852Z,25.2
2017-08-27T07:30:58.221Z,25.22
2017-08-27T07:31:38.710Z,25.38
2017-08-27T07:32:19.121Z,25.45
2017-08-27T07:32:59.646Z,25.49
2017-08-27T07:33:40.135Z,25.51
2017-08-27T07:34:20.574Z,25.63
2017-08-27T07:35:01.013Z,25.74
2017-08-27T07:35:41.418Z,25.74
2017-08-27T07:36:21.826Z,25.89
2017-08-27T07:37:02.162Z,25.85
2017-08-27T07:37:42.637Z,25.97
2017-08-27T07:38:23.029Z,26.03
2017-08-27T07:39:03.408Z,26
2017-08-27T07:39:43.814Z,25.96
2017-08-27T07:40:24.274Z,25.98
2017-08-27T07:41:04.800Z,26.03
2017-08-27T07:41:45.163Z,26.16
2017-08-27T07:42:25.531Z,26.11
2017-08-27T07:43:05.982Z,26.17
2017-08-27T07:43:46.444Z,26.01
2017-08-27T07:44:26.864Z,26.13
2017-08-27T07:45:07.246Z,26.09
2017-08-27T07:45:47.712Z,26.01
2017-08-27T07:46:28.194Z,26.09
2017-08-27T07:47:08.748Z,26.03
2017-08-27T07:47:49.302Z,25.98
2017-08-27T07:48:29.681Z,26
2017-08-27T07:49:10.057Z,26.04
2017-08-27T07:49:50.455Z,25.96
2017-08-27T07:50:30.897Z,25.98
2017-08-27T07:51:11.360Z,25.89
2017-08-27T07:51:51.792Z,25.82
2017-08-27T07:52:32.155Z,25.85
2017-08-27T07:53:12.566Z,25.85
2017-08-27T07:53:52.949Z,25.86
2017-08-27T07:54:33.430Z,25.71
2017-08-27T07:55:13.873Z,25.72
2017-08-27T07:55:54.287Z,25.76
2017-08-27T07:56:34.776Z,25.74
2017-08-27T07:57:15.150Z,25.71
2017-08-27T07:57:55.576Z,25.79
2017-08-27T07:58:35.975Z,25.79
2017-08-27T07:59:16.491Z,25.83
2017-08-27T07:59:56.906Z,25.82
2017-08-27T08:00:37.335Z,25.83
2017-08-27T08:01:17.737Z,25.85
2017-08-27T08:01:58.124Z,25.93
2017-08-27T08:02:45.434Z,26.01
2017-08-27T08:03:25.794Z,26.08
2017-08-27T08:04:06.291Z,26.19
2017-08-27T08:04:46.746Z,26.28
2017-08-27T08:05:27.197Z,26.29
2017-08-27T08:06:07.563Z,26.36
2017-08-27T08:06:47.948Z,26.46
2017-08-27T08:07:28.390Z,26.5
2017-08-27T08:08:08.824Z,26.65
2017-08-27T08:08:49.253Z,26.66
2017-08-27T08:09:29.663Z,26.84
2017-08-27T08:10:10.099Z,26.93
2017-08-27T08:10:50.568Z,27.05
2017-08-27T08:11:30.954Z,27.11
2017-08-27T08:12:11.768Z,27.08
2017-08-27T08:12:52.773Z,27.3
2017-08-27T08:13:32.680Z,27.39
2017-08-27T08:14:13.094Z,27.53
2017-08-27T08:14:53.485Z,27.58
2017-08-27T08:15:33.967Z,27.65
2017-08-27T08:16:14.516Z,27.76
2017-08-27T08:16:54.980Z,27.84
2017-08-27T08:17:35.397Z,27.98
2017-08-27T08:18:15.768Z,28.03
2017-08-27T08:18:56.246Z,28.02
2017-08-27T08:19:36.742Z,28.03
2017-08-27T08:20:17.208Z,28.09
2017-08-27T08:20:57.608Z,28.2
2017-08-27T08:21:38.775Z,28.27
2017-08-27T08:22:18.499Z,28.38
2017-08-27T08:22:58.865Z,28.43
2017-08-27T08:23:39.221Z,28.5
2017-08-27T08:24:19.654Z,28.8
2017-08-27T08:25:00.777Z,28.87
2017-08-27T08:25:40.540Z,28.97
2017-08-27T08:26:20.989Z,28.98
2017-08-27T08:27:01.437Z,29.1
2017-08-27T08:27:41.828Z,29.08
2017-08-27T08:28:22.347Z,29.05
2017-08-27T08:29:02.686Z,29.14
2017-08-27T08:29:43.176Z,29.08
2017-08-27T08:30:23.641Z,28.95
2017-08-27T08:31:04.018Z,29.05
2017-08-27T08:31:44.443Z,29.02
2017-08-27T08:32:24.851Z,29
2017-08-27T08:33:05.230Z,29.02
2017-08-27T08:33:45.652Z,28.94
2017-08-27T08:34:26.076Z,28.94
2017-08-27T08:35:06.506Z,28.91
2017-08-27T08:35:46.944Z,28.98
2017-08-27T08:36:27.359Z,28.98
2017-08-27T08:37:07.744Z,29.07
2017-08-27T08:37:48.250Z,28.91
2017-08-27T08:38:28.648Z,28.79
2017-08-27T08:39:09.106Z,28.87
2017-08-27T08:39:49.507Z,28.94
2017-08-27T08:40:29.975Z,28.95
2017-08-27T08:41:10.308Z,28.98
2017-08-27T08:41:50.682Z,29
2017-08-27T08:42:31.134Z,29.03
2017-08-27T08:43:11.654Z,29.17
2017-08-27T08:43:52.064Z,29.3
2017-08-27T08:44:32.419Z,29.37
2017-08-27T08:45:12.876Z,29.41
2017-08-27T08:45:53.358Z,29.39
2017-08-27T08:46:33.728Z,29.49
2017-08-27T08:47:14.214Z,29.63
2017-08-27T08:47:54.531Z,29.54
2017-08-27T08:48:35.011Z,29.73
2017-08-27T08:49:15.439Z,29.84
2017-08-27T08:49:55.859Z,29.79
2017-08-27T08:50:36.344Z,29.82
2017-08-27T08:51:16.809Z,29.85
2017-08-27T08:51:57.222Z,29.94
2017-08-27T08:52:37.756Z,29.94
2017-08-27T08:53:18.197Z,29.95
2017-08-27T08:53:58.605Z,30.06